Frontenac, Missouri
Current Conditions -  °F | °C
As of 9:51 AM on Saturday 25 Oct 2014 (Local Time) from KSTL Reporting Station
Few Clouds Few Clouds  
Wind Chill: 69°   Ceiling: Unl
Heat Index: 69°   Visibility: 7mi
Dew Point: 62°   Wind: 3mph
Humidity: 78%   Direction: 270°W
Pressure: 30.05"   Gusts: NA
Location:  38.6172°N, 90.4443°W
Report Text: KSTL 251451Z 27003KT 7SM FEW250 21/17 A3005 RMK AO2 SLP168 T02060167 50013
Loading
Personal Weather Stations






























Interactive Weather Map
Tropical Storm Tracking
New forecast layout! Learn more

10-Day Weather Forecast

Advertisements
Track Severe Weather on mobile